sensor_id;sensor_type;location;lat;lon;timestamp;temperature;humidity
20973;DHT22;10645;52.370;13.314;2023-08-12T00:02:13;15.00;99.90
20973;DHT22;10645;52.370;13.314;2023-08-12T00:04:39;15.00;99.90
20973;DHT22;10645;52.370;13.314;2023-08-12T00:07:05;15.00;99.90
20973;DHT22;10645;52.370;13.314;2023-08-12T00:09:31;15.00;99.90
20973;DHT22;10645;52.370;13.314;2023-08-12T00:11:57;15.00;99.90
20973;DHT22;10645;52.370;13.314;2023-08-12T00:14:23;14.90;99.90
20973;DHT22;10645;52.370;13.314;2023-08-12T00:16:49;14.90;99.90
20973;DHT22;10645;52.370;13.314;2023-08-12T00:19:15;14.90;99.90
20973;DHT22;10645;52.370;13.314;2023-08-12T00:21:41;14.80;99.90
20973;DHT22;10645;52.370;13.314;2023-08-12T00:24:07;14.80;99.90
20973;DHT22;10645;52.370;13.314;2023-08-12T00:26:33;14.80;99.90
20973;DHT22;10645;52.370;13.314;2023-08-12T00:28:59;14.70;99.90
20973;DHT22;10645;52.370;13.314;2023-08-12T00:31:25;14.70;99.90
20973;DHT22;10645;52.370;13.314;2023-08-12T00:33:51;14.70;99.90
20973;DHT22;10645;52.370;13.314;2023-08-12T00:36:18;14.60;99.90
20973;DHT22;10645;52.370;13.314;2023-08-12T00:38:44;14.60;99.90
20973;DHT22;10645;52.370;13.314;2023-08-12T00:41:10;14.70;99.90
20973;DHT22;10645;52.370;13.314;2023-08-12T00:43:36;14.70;99.90
20973;DHT22;10645;52.370;13.314;2023-08-12T00:46:03;14.60;99.90
20973;DHT22;10645;52.370;13.314;2023-08-12T00:48:29;14.60;99.90
20973;DHT22;10645;52.370;13.314;2023-08-12T00:50:55;14.60;99.90
20973;DHT22;10645;52.370;13.314;2023-08-12T00:53:21;14.60;99.90
20973;DHT22;10645;52.370;13.314;2023-08-12T00:55:47;14.60;99.90
20973;DHT22;10645;52.370;13.314;2023-08-12T00:58:13;14.60;99.90
20973;DHT22;10645;52.370;13.314;2023-08-12T01:00:41;14.60;99.90
20973;DHT22;10645;52.370;13.314;2023-08-12T01:03:07;14.50;99.90
20973;DHT22;10645;52.370;13.314;2023-08-12T01:05:33;14.50;99.90
20973;DHT22;10645;52.370;13.314;2023-08-12T01:07:59;14.50;99.90
20973;DHT22;10645;52.370;13.314;2023-08-12T01:10:31;14.50;99.90
20973;DHT22;10645;52.370;13.314;2023-08-12T01:13:16;14.50;99.90
20973;DHT22;10645;52.370;13.314;2023-08-12T01:15:46;14.50;99.90
20973;DHT22;10645;52.370;13.314;2023-08-12T01:18:16;14.50;99.90
20973;DHT22;10645;52.370;13.314;2023-08-12T01:20:43;14.50;99.90
20973;DHT22;10645;52.370;13.314;2023-08-12T01:23:15;14.50;99.90
20973;DHT22;10645;52.370;13.314;2023-08-12T01:25:42;14.40;99.90
20973;DHT22;10645;52.370;13.314;2023-08-12T01:28:08;14.40;99.90
20973;DHT22;10645;52.370;13.314;2023-08-12T01:33:58;14.40;99.90
20973;DHT22;10645;52.370;13.314;2023-08-12T01:36:29;14.40;99.90
20973;DHT22;10645;52.370;13.314;2023-08-12T01:38:58;14.40;99.90
20973;DHT22;10645;52.370;13.314;2023-08-12T01:41:25;14.40;99.90
20973;DHT22;10645;52.370;13.314;2023-08-12T01:43:52;14.40;99.90
20973;DHT22;10645;52.370;13.314;2023-08-12T01:46:18;14.40;99.90
20973;DHT22;10645;52.370;13.314;2023-08-12T01:48:44;14.40;99.90
20973;DHT22;10645;52.370;13.314;2023-08-12T01:51:11;14.40;99.90
20973;DHT22;10645;52.370;13.314;2023-08-12T01:53:37;14.30;99.90
20973;DHT22;10645;52.370;13.314;2023-08-12T01:56:04;14.30;99.90
20973;DHT22;10645;52.370;13.314;2023-08-12T01:58:30;14.30;99.90
20973;DHT22;10645;52.370;13.314;2023-08-12T02:00:57;14.40;99.90
20973;DHT22;10645;52.370;13.314;2023-08-12T02:03:23;14.40;99.90
20973;DHT22;10645;52.370;13.314;2023-08-12T02:05:49;14.40;99.90
20973;DHT22;10645;52.370;13.314;2023-08-12T02:08:15;14.40;99.90
20973;DHT22;10645;52.370;13.314;2023-08-12T02:10:41;14.50;99.90
20973;DHT22;10645;52.370;13.314;2023-08-12T02:13:07;14.40;99.90
20973;DHT22;10645;52.370;13.314;2023-08-12T02:15:33;14.50;99.90
20973;DHT22;10645;52.370;13.314;2023-08-12T02:17:59;14.50;99.90
20973;DHT22;10645;52.370;13.314;2023-08-12T02:20:25;14.50;99.90
20973;DHT22;10645;52.370;13.314;2023-08-12T02:22:51;14.50;99.90
20973;DHT22;10645;52.370;13.314;2023-08-12T02:25:17;14.60;99.90
20973;DHT22;10645;52.370;13.314;2023-08-12T02:27:44;14.60;99.90
20973;DHT22;10645;52.370;13.314;2023-08-12T02:30:10;14.60;99.90
20973;DHT22;10645;52.370;13.314;2023-08-12T02:32:37;14.70;99.90
20973;DHT22;10645;52.370;13.314;2023-08-12T02:35:04;14.70;99.90
20973;DHT22;10645;52.370;13.314;2023-08-12T02:37:30;14.80;99.90
20973;DHT22;10645;52.370;13.314;2023-08-12T02:39:57;14.80;99.90
20973;DHT22;10645;52.370;13.314;2023-08-12T02:42:23;14.80;99.90
20973;DHT22;10645;52.370;13.314;2023-08-12T02:44:49;14.90;99.90
20973;DHT22;10645;52.370;13.314;2023-08-12T02:47:15;14.90;99.90
20973;DHT22;10645;52.370;13.314;2023-08-12T02:49:41;15.00;99.90
20973;DHT22;10645;52.370;13.314;2023-08-12T02:52:09;15.00;99.90
20973;DHT22;10645;52.370;13.314;2023-08-12T02:54:35;15.00;99.90
20973;DHT22;10645;52.370;13.314;2023-08-12T02:57:01;15.00;99.90
20973;DHT22;10645;52.370;13.314;2023-08-12T02:59:27;15.00;99.90
20973;DHT22;10645;52.370;13.314;2023-08-12T03:01:55;15.00;99.90
20973;DHT22;10645;52.370;13.314;2023-08-12T03:04:21;15.00;99.90
20973;DHT22;10645;52.370;13.314;2023-08-12T03:06:48;15.00;99.90
20973;DHT22;10645;52.370;13.314;2023-08-12T03:09:14;15.00;99.90
20973;DHT22;10645;52.370;13.314;2023-08-12T03:11:41;15.00;99.90
20973;DHT22;10645;52.370;13.314;2023-08-12T03:14:09;15.00;99.90
20973;DHT22;10645;52.370;13.314;2023-08-12T03:16:35;15.00;99.90
20973;DHT22;10645;52.370;13.314;2023-08-12T03:19:01;15.00;99.90
20973;DHT22;10645;52.370;13.314;2023-08-12T03:21:28;15.00;99.90
20973;DHT22;10645;52.370;13.314;2023-08-12T03:23:54;14.90;99.90
20973;DHT22;10645;52.370;13.314;2023-08-12T03:26:20;14.90;99.90
20973;DHT22;10645;52.370;13.314;2023-08-12T03:28:47;14.90;99.90
20973;DHT22;10645;52.370;13.314;2023-08-12T03:31:16;14.80;99.90
20973;DHT22;10645;52.370;13.314;2023-08-12T03:33:43;14.80;99.90
20973;DHT22;10645;52.370;13.314;2023-08-12T03:36:09;14.70;99.90
20973;DHT22;10645;52.370;13.314;2023-08-12T03:38:36;14.70;99.90
20973;DHT22;10645;52.370;13.314;2023-08-12T03:41:03;14.70;99.90
20973;DHT22;10645;52.370;13.314;2023-08-12T03:43:30;14.70;99.90
20973;DHT22;10645;52.370;13.314;2023-08-12T03:45:56;14.70;99.90
20973;DHT22;10645;52.370;13.314;2023-08-12T03:48:22;14.70;99.90
20973;DHT22;10645;52.370;13.314;2023-08-12T03:50:49;14.70;99.90
20973;DHT22;10645;52.370;13.314;2023-08-12T03:53:15;14.70;99.90
20973;DHT22;10645;52.370;13.314;2023-08-12T03:55:42;14.70;99.90
20973;DHT22;10645;52.370;13.314;2023-08-12T03:58:09;14.70;99.90
20973;DHT22;10645;52.370;13.314;2023-08-12T04:00:35;14.80;99.90
20973;DHT22;10645;52.370;13.314;2023-08-12T04:03:05;14.80;99.90
20973;DHT22;10645;52.370;13.314;2023-08-12T04:05:31;14.80;99.90
20973;DHT22;10645;52.370;13.314;2023-08-12T04:07:57;14.70;99.90
20973;DHT22;10645;52.370;13.314;2023-08-12T04:10:24;14.80;99.90
20973;DHT22;10645;52.370;13.314;2023-08-12T04:12:50;14.80;99.90
20973;DHT22;10645;52.370;13.314;2023-08-12T04:15:17;14.80;99.90
20973;DHT22;10645;52.370;13.314;2023-08-12T04:17:43;14.80;99.90
20973;DHT22;10645;52.370;13.314;2023-08-12T04:20:10;14.90;99.90
20973;DHT22;10645;52.370;13.314;2023-08-12T04:22:36;14.90;99.90
20973;DHT22;10645;52.370;13.314;2023-08-12T04:25:03;15.00;99.90
20973;DHT22;10645;52.370;13.314;2023-08-12T04:27:29;15.00;99.90
20973;DHT22;10645;52.370;13.314;2023-08-12T04:29:55;15.00;99.90
20973;DHT22;10645;52.370;13.314;2023-08-12T04:32:22;15.10;99.90
20973;DHT22;10645;52.370;13.314;2023-08-12T04:34:49;15.20;99.90
20973;DHT22;10645;52.370;13.314;2023-08-12T04:37:15;15.30;99.90
20973;DHT22;10645;52.370;13.314;2023-08-12T04:39:43;15.30;99.90
20973;DHT22;10645;52.370;13.314;2023-08-12T04:42:10;15.40;99.90
20973;DHT22;10645;52.370;13.314;2023-08-12T04:44:36;15.50;99.90
20973;DHT22;10645;52.370;13.314;2023-08-12T04:47:02;15.50;99.90
20973;DHT22;10645;52.370;13.314;2023-08-12T04:49:29;15.60;99.90
20973;DHT22;10645;52.370;13.314;2023-08-12T04:51:56;15.70;99.90
20973;DHT22;10645;52.370;13.314;2023-08-12T04:54:22;15.80;99.90
20973;DHT22;10645;52.370;13.314;2023-08-12T04:56:49;15.90;99.90
20973;DHT22;10645;52.370;13.314;2023-08-12T04:59:15;16.00;99.90
20973;DHT22;10645;52.370;13.314;2023-08-12T05:01:41;16.20;99.90
20973;DHT22;10645;52.370;13.314;2023-08-12T05:04:08;16.30;99.90
20973;DHT22;10645;52.370;13.314;2023-08-12T05:06:34;16.50;99.90
20973;DHT22;10645;52.370;13.314;2023-08-12T05:09:00;16.70;99.90
20973;DHT22;10645;52.370;13.314;2023-08-12T05:11:27;16.80;99.90
20973;DHT22;10645;52.370;13.314;2023-08-12T05:13:54;17.00;99.90
20973;DHT22;10645;52.370;13.314;2023-08-12T05:16:20;17.20;99.90
20973;DHT22;10645;52.370;13.314;2023-08-12T05:18:46;17.40;99.90
20973;DHT22;10645;52.370;13.314;2023-08-12T05:21:12;17.50;99.90
20973;DHT22;10645;52.370;13.314;2023-08-12T05:23:38;17.70;99.90
20973;DHT22;10645;52.370;13.314;2023-08-12T05:26:04;17.90;99.90
20973;DHT22;10645;52.370;13.314;2023-08-12T05:28:30;18.00;99.90
20973;DHT22;10645;52.370;13.314;2023-08-12T05:30:56;18.20;99.90
20973;DHT22;10645;52.370;13.314;2023-08-12T05:33:22;18.30;99.90
20973;DHT22;10645;52.370;13.314;2023-08-12T05:35:48;18.50;99.90
20973;DHT22;10645;52.370;13.314;2023-08-12T05:38:14;18.60;99.90
20973;DHT22;10645;52.370;13.314;2023-08-12T05:40:41;18.70;99.90
20973;DHT22;10645;52.370;13.314;2023-08-12T05:43:07;18.80;99.90
20973;DHT22;10645;52.370;13.314;2023-08-12T05:45:34;19.00;99.90
20973;DHT22;10645;52.370;13.314;2023-08-12T05:48:00;19.10;99.90
20973;DHT22;10645;52.370;13.314;2023-08-12T05:50:26;19.10;99.90
20973;DHT22;10645;52.370;13.314;2023-08-12T05:52:52;19.20;99.90
20973;DHT22;10645;52.370;13.314;2023-08-12T05:55:18;19.20;99.90
20973;DHT22;10645;52.370;13.314;2023-08-12T05:57:44;19.20;99.90
20973;DHT22;10645;52.370;13.314;2023-08-12T06:00:11;19.30;99.90
20973;DHT22;10645;52.370;13.314;2023-08-12T06:02:39;19.50;99.90
20973;DHT22;10645;52.370;13.314;2023-08-12T06:05:06;19.50;99.90
20973;DHT22;10645;52.370;13.314;2023-08-12T06:07:32;19.60;99.90
20973;DHT22;10645;52.370;13.314;2023-08-12T06:09:58;19.70;99.90
20973;DHT22;10645;52.370;13.314;2023-08-12T06:12:24;19.80;99.90
20973;DHT22;10645;52.370;13.314;2023-08-12T06:14:51;19.90;99.90
20973;DHT22;10645;52.370;13.314;2023-08-12T06:17:17;20.00;99.90
20973;DHT22;10645;52.370;13.314;2023-08-12T06:19:43;20.10;99.90
20973;DHT22;10645;52.370;13.314;2023-08-12T06:22:09;20.30;99.90
20973;DHT22;10645;52.370;13.314;2023-08-12T06:24:35;20.40;99.90
20973;DHT22;10645;52.370;13.314;2023-08-12T06:27:01;20.50;99.90
20973;DHT22;10645;52.370;13.314;2023-08-12T06:29:27;20.60;99.90
20973;DHT22;10645;52.370;13.314;2023-08-12T06:31:53;20.50;99.90
20973;DHT22;10645;52.370;13.314;2023-08-12T06:34:19;20.40;99.90
20973;DHT22;10645;52.370;13.314;2023-08-12T06:36:45;20.50;99.90
20973;DHT22;10645;52.370;13.314;2023-08-12T06:39:11;20.40;99.90
20973;DHT22;10645;52.370;13.314;2023-08-12T06:41:37;20.40;99.90
20973;DHT22;10645;52.370;13.314;2023-08-12T06:44:04;20.40;99.90
20973;DHT22;10645;52.370;13.314;2023-08-12T06:46:30;20.40;99.90
20973;DHT22;10645;52.370;13.314;2023-08-12T06:48:58;20.50;99.90
20973;DHT22;10645;52.370;13.314;2023-08-12T06:51:24;20.50;99.90
20973;DHT22;10645;52.370;13.314;2023-08-12T06:53:50;20.40;99.90
20973;DHT22;10645;52.370;13.314;2023-08-12T06:56:16;20.50;99.90
20973;DHT22;10645;52.370;13.314;2023-08-12T06:58:42;20.40;99.90
20973;DHT22;10645;52.370;13.314;2023-08-12T07:01:08;20.40;99.90
20973;DHT22;10645;52.370;13.314;2023-08-12T07:03:34;20.40;99.90
20973;DHT22;10645;52.370;13.314;2023-08-12T07:06:00;20.50;99.90
20973;DHT22;10645;52.370;13.314;2023-08-12T07:08:26;20.60;99.90
20973;DHT22;10645;52.370;13.314;2023-08-12T07:10:53;20.70;99.90
20973;DHT22;10645;52.370;13.314;2023-08-12T07:13:19;21.00;99.90
20973;DHT22;10645;52.370;13.314;2023-08-12T07:15:45;21.30;99.90
20973;DHT22;10645;52.370;13.314;2023-08-12T07:18:11;21.70;99.90
20973;DHT22;10645;52.370;13.314;2023-08-12T07:20:37;22.10;99.90
20973;DHT22;10645;52.370;13.314;2023-08-12T07:23:03;22.30;99.90
20973;DHT22;10645;52.370;13.314;2023-08-12T07:25:30;22.50;99.90
20973;DHT22;10645;52.370;13.314;2023-08-12T07:27:57;22.70;99.90
20973;DHT22;10645;52.370;13.314;2023-08-12T07:30:23;23.10;99.90
20973;DHT22;10645;52.370;13.314;2023-08-12T07:32:49;23.20;99.90
20973;DHT22;10645;52.370;13.314;2023-08-12T07:35:15;23.20;99.90
20973;DHT22;10645;52.370;13.314;2023-08-12T07:37:41;23.30;99.90
20973;DHT22;10645;52.370;13.314;2023-08-12T07:40:08;23.40;99.90
20973;DHT22;10645;52.370;13.314;2023-08-12T07:42:34;23.40;99.90
20973;DHT22;10645;52.370;13.314;2023-08-12T07:45:00;23.60;99.90
20973;DHT22;10645;52.370;13.314;2023-08-12T07:47:27;23.60;99.90
20973;DHT22;10645;52.370;13.314;2023-08-12T07:49:53;23.60;99.90
20973;DHT22;10645;52.370;13.314;2023-08-12T07:52:19;23.60;99.90
20973;DHT22;10645;52.370;13.314;2023-08-12T07:54:45;23.50;99.90
20973;DHT22;10645;52.370;13.314;2023-08-12T07:57:11;23.60;99.90
20973;DHT22;10645;52.370;13.314;2023-08-12T07:59:37;23.70;99.90
20973;DHT22;10645;52.370;13.314;2023-08-12T08:02:03;23.80;99.90
20973;DHT22;10645;52.370;13.314;2023-08-12T08:04:29;24.10;99.90
20973;DHT22;10645;52.370;13.314;2023-08-12T08:06:55;24.30;99.90
20973;DHT22;10645;52.370;13.314;2023-08-12T08:09:21;24.30;99.90
20973;DHT22;10645;52.370;13.314;2023-08-12T08:11:48;24.20;99.90
20973;DHT22;10645;52.370;13.314;2023-08-12T08:14:14;24.10;99.90
20973;DHT22;10645;52.370;13.314;2023-08-12T08:16:40;24.10;99.90
20973;DHT22;10645;52.370;13.314;2023-08-12T08:19:07;23.90;99.90
20973;DHT22;10645;52.370;13.314;2023-08-12T08:21:36;23.80;99.90
20973;DHT22;10645;52.370;13.314;2023-08-12T08:24:02;23.60;99.90
20973;DHT22;10645;52.370;13.314;2023-08-12T08:26:28;23.40;99.90
20973;DHT22;10645;52.370;13.314;2023-08-12T08:28:54;23.30;99.90
20973;DHT22;10645;52.370;13.314;2023-08-12T08:31:21;23.10;99.90
20973;DHT22;10645;52.370;13.314;2023-08-12T08:33:47;23.00;99.90
20973;DHT22;10645;52.370;13.314;2023-08-12T08:36:13;22.80;99.90
20973;DHT22;10645;52.370;13.314;2023-08-12T08:38:39;22.70;99.90
20973;DHT22;10645;52.370;13.314;2023-08-12T08:41:06;22.60;99.90
20973;DHT22;10645;52.370;13.314;2023-08-12T08:43:35;22.50;99.90
20973;DHT22;10645;52.370;13.314;2023-08-12T08:46:02;22.50;99.90
20973;DHT22;10645;52.370;13.314;2023-08-12T08:48:29;22.50;99.90
20973;DHT22;10645;52.370;13.314;2023-08-12T08:50:55;22.60;99.90
20973;DHT22;10645;52.370;13.314;2023-08-12T08:53:21;22.80;99.90
20973;DHT22;10645;52.370;13.314;2023-08-12T08:55:48;23.00;99.90
20973;DHT22;10645;52.370;13.314;2023-08-12T08:58:14;23.10;99.90
20973;DHT22;10645;52.370;13.314;2023-08-12T09:00:41;23.30;99.90
20973;DHT22;10645;52.370;13.314;2023-08-12T09:03:07;23.40;99.90
20973;DHT22;10645;52.370;13.314;2023-08-12T09:05:35;23.50;99.90
20973;DHT22;10645;52.370;13.314;2023-08-12T09:08:02;23.60;99.90
20973;DHT22;10645;52.370;13.314;2023-08-12T09:10:31;23.90;99.90
20973;DHT22;10645;52.370;13.314;2023-08-12T09:12:58;24.20;99.90
20973;DHT22;10645;52.370;13.314;2023-08-12T09:15:24;24.50;99.90
20973;DHT22;10645;52.370;13.314;2023-08-12T09:17:50;24.80;99.90
20973;DHT22;10645;52.370;13.314;2023-08-12T09:20:16;25.30;99.90
20973;DHT22;10645;52.370;13.314;2023-08-12T09:22:43;25.60;99.90
20973;DHT22;10645;52.370;13.314;2023-08-12T09:25:10;25.90;99.90
20973;DHT22;10645;52.370;13.314;2023-08-12T09:27:36;26.30;99.90
20973;DHT22;10645;52.370;13.314;2023-08-12T09:30:04;26.40;99.90
20973;DHT22;10645;52.370;13.314;2023-08-12T09:32:30;26.20;99.90
20973;DHT22;10645;52.370;13.314;2023-08-12T09:34:56;26.00;99.90
20973;DHT22;10645;52.370;13.314;2023-08-12T09:37:24;25.80;99.90
20973;DHT22;10645;52.370;13.314;2023-08-12T09:39:51;25.70;99.90
20973;DHT22;10645;52.370;13.314;2023-08-12T09:42:18;25.70;99.90
20973;DHT22;10645;52.370;13.314;2023-08-12T09:44:44;25.80;99.90
20973;DHT22;10645;52.370;13.314;2023-08-12T09:47:10;25.80;99.90
20973;DHT22;10645;52.370;13.314;2023-08-12T09:49:38;25.90;99.90
20973;DHT22;10645;52.370;13.314;2023-08-12T09:52:05;26.10;99.90
20973;DHT22;10645;52.370;13.314;2023-08-12T09:54:33;26.40;99.90
20973;DHT22;10645;52.370;13.314;2023-08-12T09:57:00;26.40;99.90
20973;DHT22;10645;52.370;13.314;2023-08-12T09:59:31;26.40;99.90
20973;DHT22;10645;52.370;13.314;2023-08-12T10:02:01;26.50;99.90
20973;DHT22;10645;52.370;13.314;2023-08-12T10:04:39;26.40;99.90
20973;DHT22;10645;52.370;13.314;2023-08-12T10:07:09;26.20;99.90
20973;DHT22;10645;52.370;13.314;2023-08-12T10:09:36;26.10;99.90
20973;DHT22;10645;52.370;13.314;2023-08-12T10:12:04;26.10;99.90
20973;DHT22;10645;52.370;13.314;2023-08-12T10:14:31;26.00;99.90
20973;DHT22;10645;52.370;13.314;2023-08-12T10:16:58;26.10;99.90
20973;DHT22;10645;52.370;13.314;2023-08-12T10:19:24;25.90;99.90
20973;DHT22;10645;52.370;13.314;2023-08-12T10:21:54;25.90;99.90
20973;DHT22;10645;52.370;13.314;2023-08-12T10:24:21;25.80;99.90
20973;DHT22;10645;52.370;13.314;2023-08-12T10:26:48;25.80;99.90
20973;DHT22;10645;52.370;13.314;2023-08-12T10:29:15;25.90;99.90
20973;DHT22;10645;52.370;13.314;2023-08-12T10:31:41;26.10;99.90
20973;DHT22;10645;52.370;13.314;2023-08-12T10:34:24;26.20;99.90
20973;DHT22;10645;52.370;13.314;2023-08-12T10:36:54;26.30;99.90
20973;DHT22;10645;52.370;13.314;2023-08-12T10:39:27;26.20;99.90
20973;DHT22;10645;52.370;13.314;2023-08-12T10:41:55;26.20;99.90
20973;DHT22;10645;52.370;13.314;2023-08-12T10:44:24;26.30;99.90
20973;DHT22;10645;52.370;13.314;2023-08-12T10:46:52;26.50;99.90
20973;DHT22;10645;52.370;13.314;2023-08-12T10:49:20;26.60;99.90
20973;DHT22;10645;52.370;13.314;2023-08-12T10:51:52;26.80;99.90
20973;DHT22;10645;52.370;13.314;2023-08-12T10:54:22;26.70;99.90
20973;DHT22;10645;52.370;13.314;2023-08-12T10:57:10;26.70;99.90
20973;DHT22;10645;52.370;13.314;2023-08-12T11:02:21;26.50;99.90
20973;DHT22;10645;52.370;13.314;2023-08-12T11:04:55;26.60;99.90
20973;DHT22;10645;52.370;13.314;2023-08-12T11:07:29;26.20;99.90
20973;DHT22;10645;52.370;13.314;2023-08-12T11:10:05;26.00;99.90
20973;DHT22;10645;52.370;13.314;2023-08-12T11:12:34;26.00;99.90
20973;DHT22;10645;52.370;13.314;2023-08-12T11:15:01;25.90;99.90
20973;DHT22;10645;52.370;13.314;2023-08-12T11:20:02;25.90;99.90
20973;DHT22;10645;52.370;13.314;2023-08-12T11:22:31;25.70;99.90
20973;DHT22;10645;52.370;13.314;2023-08-12T11:24:58;25.60;99.90
20973;DHT22;10645;52.370;13.314;2023-08-12T11:27:24;25.40;99.90
20973;DHT22;10645;52.370;13.314;2023-08-12T11:29:50;25.20;99.90
20973;DHT22;10645;52.370;13.314;2023-08-12T11:32:19;24.90;99.90
20973;DHT22;10645;52.370;13.314;2023-08-12T11:34:46;24.80;99.90
20973;DHT22;10645;52.370;13.314;2023-08-12T11:37:12;24.60;99.90
20973;DHT22;10645;52.370;13.314;2023-08-12T11:39:38;24.60;99.90
20973;DHT22;10645;52.370;13.314;2023-08-12T11:42:04;24.60;99.90
20973;DHT22;10645;52.370;13.314;2023-08-12T11:44:30;24.70;99.90
20973;DHT22;10645;52.370;13.314;2023-08-12T11:46:57;24.70;99.90
20973;DHT22;10645;52.370;13.314;2023-08-12T11:49:23;24.90;99.90
20973;DHT22;10645;52.370;13.314;2023-08-12T11:51:49;25.20;99.90
20973;DHT22;10645;52.370;13.314;2023-08-12T11:54:16;25.40;99.90
20973;DHT22;10645;52.370;13.314;2023-08-12T11:56:42;25.40;99.90
20973;DHT22;10645;52.370;13.314;2023-08-12T11:59:09;25.40;99.90
20973;DHT22;10645;52.370;13.314;2023-08-12T12:01:35;25.40;99.90
20973;DHT22;10645;52.370;13.314;2023-08-12T12:04:01;25.40;99.90
20973;DHT22;10645;52.370;13.314;2023-08-12T12:06:32;25.30;99.90
20973;DHT22;10645;52.370;13.314;2023-08-12T12:09:07;25.10;99.90
20973;DHT22;10645;52.370;13.314;2023-08-12T12:11:36;25.10;99.90
20973;DHT22;10645;52.370;13.314;2023-08-12T12:14:07;25.00;99.90
20973;DHT22;10645;52.370;13.314;2023-08-12T12:16:43;25.00;99.90
20973;DHT22;10645;52.370;13.314;2023-08-12T12:19:18;24.90;99.90
20973;DHT22;10645;52.370;13.314;2023-08-12T12:21:47;24.90;99.90
20973;DHT22;10645;52.370;13.314;2023-08-12T12:24:14;24.80;99.90
20973;DHT22;10645;52.370;13.314;2023-08-12T12:26:40;24.70;99.90
20973;DHT22;10645;52.370;13.314;2023-08-12T12:29:07;24.70;99.90
20973;DHT22;10645;52.370;13.314;2023-08-12T12:31:34;24.70;99.90
20973;DHT22;10645;52.370;13.314;2023-08-12T12:34:02;24.80;99.90
20973;DHT22;10645;52.370;13.314;2023-08-12T12:36:38;25.00;99.90
20973;DHT22;10645;52.370;13.314;2023-08-12T12:39:05;25.40;99.90
20973;DHT22;10645;52.370;13.314;2023-08-12T12:41:31;25.70;99.90
20973;DHT22;10645;52.370;13.314;2023-08-12T12:44:02;26.20;99.90
20973;DHT22;10645;52.370;13.314;2023-08-12T12:46:28;26.50;99.90
20973;DHT22;10645;52.370;13.314;2023-08-12T12:48:54;26.80;99.90
20973;DHT22;10645;52.370;13.314;2023-08-12T12:51:20;26.90;99.90
20973;DHT22;10645;52.370;13.314;2023-08-12T12:53:46;27.10;99.90
20973;DHT22;10645;52.370;13.314;2023-08-12T12:56:12;27.30;99.90
20973;DHT22;10645;52.370;13.314;2023-08-12T12:58:39;27.40;99.90
20973;DHT22;10645;52.370;13.314;2023-08-12T13:01:05;27.60;99.90
20973;DHT22;10645;52.370;13.314;2023-08-12T13:03:32;27.70;99.90
20973;DHT22;10645;52.370;13.314;2023-08-12T13:05:58;27.80;99.90
20973;DHT22;10645;52.370;13.314;2023-08-12T13:08:25;28.20;99.90
20973;DHT22;10645;52.370;13.314;2023-08-12T13:10:51;28.30;99.90
20973;DHT22;10645;52.370;13.314;2023-08-12T13:13:18;28.50;99.90
20973;DHT22;10645;52.370;13.314;2023-08-12T13:15:45;28.50;99.90
20973;DHT22;10645;52.370;13.314;2023-08-12T13:18:11;28.60;99.90
20973;DHT22;10645;52.370;13.314;2023-08-12T13:20:38;28.40;99.90
20973;DHT22;10645;52.370;13.314;2023-08-12T13:23:04;28.20;99.90
20973;DHT22;10645;52.370;13.314;2023-08-12T13:25:32;28.10;99.90
20973;DHT22;10645;52.370;13.314;2023-08-12T13:28:02;28.10;99.90
20973;DHT22;10645;52.370;13.314;2023-08-12T13:30:29;28.10;99.90
20973;DHT22;10645;52.370;13.314;2023-08-12T13:32:56;28.10;99.90
20973;DHT22;10645;52.370;13.314;2023-08-12T13:35:23;28.10;99.90
20973;DHT22;10645;52.370;13.314;2023-08-12T13:37:49;28.10;99.90
20973;DHT22;10645;52.370;13.314;2023-08-12T13:40:15;28.50;99.90
20973;DHT22;10645;52.370;13.314;2023-08-12T13:42:42;28.70;99.90
20973;DHT22;10645;52.370;13.314;2023-08-12T13:45:10;28.70;99.90
20973;DHT22;10645;52.370;13.314;2023-08-12T13:47:37;29.10;99.90
20973;DHT22;10645;52.370;13.314;2023-08-12T13:50:03;28.90;99.90
20973;DHT22;10645;52.370;13.314;2023-08-12T13:52:30;28.90;99.90
20973;DHT22;10645;52.370;13.314;2023-08-12T13:54:56;28.80;99.90
20973;DHT22;10645;52.370;13.314;2023-08-12T13:57:22;28.70;99.90
20973;DHT22;10645;52.370;13.314;2023-08-12T13:59:48;29.20;99.90
20973;DHT22;10645;52.370;13.314;2023-08-12T14:02:15;29.40;99.90
20973;DHT22;10645;52.370;13.314;2023-08-12T14:04:41;29.80;99.90
20973;DHT22;10645;52.370;13.314;2023-08-12T14:07:07;30.00;99.90
20973;DHT22;10645;52.370;13.314;2023-08-12T14:09:34;29.90;99.90
20973;DHT22;10645;52.370;13.314;2023-08-12T14:12:00;30.00;99.90
20973;DHT22;10645;52.370;13.314;2023-08-12T14:14:26;29.70;99.90
20973;DHT22;10645;52.370;13.314;2023-08-12T14:16:54;29.90;99.90
20973;DHT22;10645;52.370;13.314;2023-08-12T14:19:20;30.30;99.90
20973;DHT22;10645;52.370;13.314;2023-08-12T14:21:46;30.30;99.90
20973;DHT22;10645;52.370;13.314;2023-08-12T14:24:12;29.80;99.90
20973;DHT22;10645;52.370;13.314;2023-08-12T14:26:41;29.60;99.90
20973;DHT22;10645;52.370;13.314;2023-08-12T14:29:07;29.20;99.90
20973;DHT22;10645;52.370;13.314;2023-08-12T14:31:33;29.30;99.90
20973;DHT22;10645;52.370;13.314;2023-08-12T14:34:00;29.00;99.90
20973;DHT22;10645;52.370;13.314;2023-08-12T14:36:27;28.80;99.90
20973;DHT22;10645;52.370;13.314;2023-08-12T14:38:53;29.00;99.90
20973;DHT22;10645;52.370;13.314;2023-08-12T14:41:19;29.20;99.90
20973;DHT22;10645;52.370;13.314;2023-08-12T14:43:45;29.60;99.90
20973;DHT22;10645;52.370;13.314;2023-08-12T14:46:11;29.80;99.90
20973;DHT22;10645;52.370;13.314;2023-08-12T14:48:37;29.90;99.90
20973;DHT22;10645;52.370;13.314;2023-08-12T14:51:04;30.00;99.90
20973;DHT22;10645;52.370;13.314;2023-08-12T14:53:30;29.50;99.90
20973;DHT22;10645;52.370;13.314;2023-08-12T14:55:56;29.20;99.90
20973;DHT22;10645;52.370;13.314;2023-08-12T14:58:22;29.10;99.90
20973;DHT22;10645;52.370;13.314;2023-08-12T15:00:48;28.90;99.90
20973;DHT22;10645;52.370;13.314;2023-08-12T15:03:14;28.60;99.90
20973;DHT22;10645;52.370;13.314;2023-08-12T15:05:41;28.40;99.90
20973;DHT22;10645;52.370;13.314;2023-08-12T15:08:07;28.20;99.90
20973;DHT22;10645;52.370;13.314;2023-08-12T15:10:34;28.00;99.90
20973;DHT22;10645;52.370;13.314;2023-08-12T15:13:00;28.00;99.90
20973;DHT22;10645;52.370;13.314;2023-08-12T15:15:26;27.90;99.90
20973;DHT22;10645;52.370;13.314;2023-08-12T15:17:52;27.80;99.90
20973;DHT22;10645;52.370;13.314;2023-08-12T15:20:19;27.80;99.90
20973;DHT22;10645;52.370;13.314;2023-08-12T15:22:45;27.80;99.90